Time;durP1;ratioP1;P1;durP2;ratioP2;P2;SDS_P1;SDS_P2;PMS_P1;PMS_P2;Temp;Humidity;BMP_temperature;BMP_pressure;BME280_temperature;BME280_humidity;BME280_pressure;Samples;Min_cycle;Max_cycle;Signal;HPM_P1;HPM_P2
2023/10/22 00:00:44;;;;;;;17.35;9.07;;;;;;;3.30;100.00;99138.91;5017746;28;20029;-73
2023/10/22 00:03:10;;;;;;;19.20;9.40;;;;;;;3.20;100.00;99139.13;5001228;28;20057;-74
2023/10/22 00:05:36;;;;;;;17.70;9.57;;;;;;;3.03;100.00;99146.25;5017461;28;20056;-73
2023/10/22 00:08:02;;;;;;;24.90;10.93;;;;;;;2.93;100.00;99142.13;5016970;28;20029;-73
2023/10/22 00:10:27;;;;;;;18.77;10.23;;;;;;;3.01;100.00;99142.09;5034558;28;20029;-73
2023/10/22 00:12:54;;;;;;;21.00;9.48;;;;;;;3.03;100.00;99156.88;5033292;28;20483;-73
2023/10/22 00:15:24;;;;;;;18.08;8.27;;;;;;;2.91;100.00;99144.94;5033729;28;20029;-73
2023/10/22 00:17:50;;;;;;;17.60;8.77;;;;;;;2.90;100.00;99155.72;5033348;28;20029;-73
2023/10/22 00:20:16;;;;;;;26.13;9.40;;;;;;;2.73;100.00;99150.41;5017659;28;20040;-73
2023/10/22 00:22:41;;;;;;;27.58;9.45;;;;;;;2.73;100.00;99165.50;5017017;28;20033;-74
2023/10/22 00:25:07;;;;;;;51.63;10.85;;;;;;;2.76;100.00;99154.56;5000869;28;20124;-73
2023/10/22 00:27:33;;;;;;;62.53;11.85;;;;;;;2.81;100.00;99165.53;5000724;28;20069;-73
2023/10/22 00:29:59;;;;;;;66.03;10.48;;;;;;;2.83;100.00;99166.16;5000706;28;20064;-73
2023/10/22 00:32:25;;;;;;;43.08;9.63;;;;;;;2.71;100.00;99162.19;5017034;28;20490;-73
2023/10/22 00:34:51;;;;;;;34.05;7.75;;;;;;;2.61;100.00;99171.13;5016984;28;20064;-73
2023/10/22 00:37:17;;;;;;;26.98;7.40;;;;;;;2.53;100.00;99170.28;5032856;28;20025;-75
2023/10/22 00:39:43;;;;;;;39.53;7.43;;;;;;;2.43;100.00;99173.06;5032846;28;20044;-73
2023/10/22 00:42:11;;;;;;;28.92;7.18;;;;;;;2.33;100.00;99177.69;5016653;28;20030;-73
2023/10/22 00:44:37;;;;;;;38.15;8.13;;;;;;;2.37;100.00;99171.06;5033512;28;20033;-73
2023/10/22 00:47:04;;;;;;;38.75;7.38;;;;;;;2.44;100.00;99188.00;5033220;28;20033;-73
2023/10/22 00:49:29;;;;;;;33.33;6.35;;;;;;;2.38;100.00;99183.34;5000063;28;20029;-73
2023/10/22 00:51:55;;;;;;;27.38;6.25;;;;;;;2.35;100.00;99175.72;5016732;28;20029;-73
2023/10/22 00:54:22;;;;;;;24.38;7.32;;;;;;;2.35;100.00;99168.56;5000208;28;20099;-73
2023/10/22 00:56:49;;;;;;;17.85;6.07;;;;;;;2.27;100.00;99171.22;5032959;28;20084;-74
2023/10/22 00:59:15;;;;;;;18.58;5.75;;;;;;;2.24;100.00;99176.00;5000029;28;20129;-73
2023/10/22 01:01:40;;;;;;;37.63;6.90;;;;;;;2.13;100.00;99175.31;5033114;28;20061;-74
2023/10/22 01:04:06;;;;;;;24.55;6.53;;;;;;;2.05;100.00;99177.13;5032736;28;20083;-73
2023/10/22 01:06:33;;;;;;;13.38;5.20;;;;;;;1.98;100.00;99174.25;5032809;28;20064;-73
2023/10/22 01:08:59;;;;;;;16.48;5.63;;;;;;;1.91;100.00;99184.69;5032349;28;20041;-73
2023/10/22 01:11:24;;;;;;;34.53;6.75;;;;;;;1.83;100.00;99178.53;5033589;28;20369;-73
2023/10/22 01:13:50;;;;;;;13.63;4.70;;;;;;;1.73;100.00;99189.22;5032778;28;20144;-73
2023/10/22 01:16:16;;;;;;;8.32;4.80;;;;;;;1.62;100.00;99198.28;5016342;28;20058;-73
2023/10/22 01:18:41;;;;;;;9.45;5.38;;;;;;;1.58;100.00;99201.38;5016342;28;20483;-73
2023/10/22 01:21:07;;;;;;;10.20;5.32;;;;;;;1.66;100.00;99196.97;5000096;28;20021;-73
2023/10/22 01:23:37;;;;;;;8.50;4.25;;;;;;;1.69;100.00;99191.38;5032399;28;20116;-73
2023/10/22 01:26:04;;;;;;;10.23;4.82;;;;;;;1.73;100.00;99190.06;5032134;28;20026;-73
2023/10/22 01:28:30;;;;;;;11.30;5.60;;;;;;;1.81;100.00;99191.09;5032330;28;20025;-73
2023/10/22 01:30:57;;;;;;;8.75;4.63;;;;;;;1.80;100.00;99192.06;5016043;28;20056;-73
2023/10/22 01:33:25;;;;;;;6.88;4.22;;;;;;;1.68;100.00;99200.28;5016488;28;20033;-73
2023/10/22 01:35:51;;;;;;;12.18;4.75;;;;;;;1.63;100.00;99193.81;5032401;28;20076;-73
2023/10/22 01:38:17;;;;;;;15.57;4.63;;;;;;;1.63;100.00;99202.56;5032207;28;20072;-73
2023/10/22 01:40:43;;;;;;;38.30;6.28;;;;;;;1.58;100.00;99194.25;5015710;28;20029;-73
2023/10/22 01:43:08;;;;;;;28.15;5.53;;;;;;;1.46;100.00;99193.72;4999747;28;20040;-73
2023/10/22 01:45:34;;;;;;;37.95;6.07;;;;;;;1.51;100.00;99196.72;5032364;28;20037;-73
2023/10/22 01:48:00;;;;;;;11.38;4.80;;;;;;;1.53;100.00;99207.16;5033387;28;20033;-73
2023/10/22 01:50:26;;;;;;;13.13;4.50;;;;;;;1.57;100.00;99205.84;4999746;28;20037;-74
2023/10/22 01:52:51;;;;;;;15.45;4.55;;;;;;;1.53;100.00;99210.66;4999743;28;20037;-73
2023/10/22 01:55:18;;;;;;;14.65;3.83;;;;;;;1.38;100.00;99206.06;4999809;28;20187;-73
2023/10/22 01:57:44;;;;;;;10.95;4.18;;;;;;;1.31;100.00;99211.97;5032219;28;20033;-73
2023/10/22 02:00:10;;;;;;;8.20;3.78;;;;;;;1.22;100.00;99206.78;5000251;28;20040;-73
2023/10/22 02:02:37;;;;;;;11.40;4.28;;;;;;;1.16;100.00;99212.66;5015820;28;20112;-73
2023/10/22 02:05:03;;;;;;;14.32;4.22;;;;;;;1.11;100.00;99205.19;5015801;28;20040;-74
2023/10/22 02:07:29;;;;;;;7.28;3.85;;;;;;;1.21;100.00;99215.69;5015755;28;20059;-73
2023/10/22 02:09:55;;;;;;;25.35;5.15;;;;;;;1.24;100.00;99216.22;4999181;28;20468;-73
2023/10/22 02:12:30;;;;;;;8.68;3.67;;;;;;;1.30;100.00;99225.38;4999405;28;20087;-73
2023/10/22 02:14:56;;;;;;;6.55;3.45;;;;;;;1.31;100.00;99233.16;5015739;28;20594;-73
2023/10/22 02:17:22;;;;;;;8.50;3.67;;;;;;;1.25;100.00;99233.78;5017462;28;20109;-73
2023/10/22 02:19:47;;;;;;;4.97;3.60;;;;;;;1.30;100.00;99233.31;5019436;28;20044;-73
2023/10/22 02:22:13;;;;;;;7.28;3.30;;;;;;;1.36;100.00;99242.47;5035722;28;20037;-73
2023/10/22 02:24:42;;;;;;;8.32;3.88;;;;;;;1.45;100.00;99244.16;5035673;28;20067;-73
2023/10/22 02:27:08;;;;;;;8.43;3.83;;;;;;;1.57;100.00;99242.13;5019410;28;20061;-74
2023/10/22 02:29:34;;;;;;;6.97;3.72;;;;;;;1.72;100.00;99244.03;5018744;28;20041;-74
2023/10/22 02:31:59;;;;;;;7.20;3.42;;;;;;;1.79;100.00;99251.38;5002892;28;20045;-73
2023/10/22 02:34:25;;;;;;;6.38;3.47;;;;;;;1.78;100.00;99249.72;5035546;28;20079;-74
2023/10/22 02:36:50;;;;;;;7.18;3.83;;;;;;;1.70;100.00;99248.66;5019212;28;20402;-74
2023/10/22 02:39:16;;;;;;;12.32;3.97;;;;;;;1.68;100.00;99242.69;5019162;28;20029;-73
2023/10/22 02:41:44;;;;;;;5.18;3.20;;;;;;;1.65;100.00;99248.28;5035123;28;20029;-73
2023/10/22 02:44:10;;;;;;;5.60;3.15;;;;;;;1.62;100.00;99251.25;5035392;28;20112;-73
2023/10/22 02:46:35;;;;;;;8.43;3.25;;;;;;;1.67;100.00;99256.94;5035310;28;20053;-73
2023/10/22 02:49:01;;;;;;;7.25;4.05;;;;;;;1.74;100.00;99257.94;5018744;28;20116;-74
2023/10/22 02:51:26;;;;;;;8.00;3.63;;;;;;;1.89;100.00;99258.22;5018902;28;20034;-73
2023/10/22 02:53:52;;;;;;;8.10;3.28;;;;;;;2.04;100.00;99252.31;5035203;28;20038;-73
2023/10/22 02:56:18;;;;;;;3.75;2.72;;;;;;;2.13;100.00;99254.84;5002541;28;20045;-74
2023/10/22 02:58:43;;;;;;;5.28;2.75;;;;;;;2.18;100.00;99252.56;5018779;28;20052;-73
2023/10/22 03:01:10;;;;;;;4.93;2.80;;;;;;;2.26;100.00;99246.47;5002411;28;20037;-73
2023/10/22 03:03:40;;;;;;;7.50;2.92;;;;;;;2.42;100.00;99264.25;5002313;28;20025;-73
2023/10/22 03:06:12;;;;;;;8.35;2.88;;;;;;;2.54;100.00;99260.34;5019069;28;20073;-73
2023/10/22 03:08:39;;;;;;;5.82;2.65;;;;;;;2.62;100.00;99260.38;5018393;28;20529;-74
2023/10/22 03:11:05;;;;;;;11.48;3.63;;;;;;;2.75;100.00;99265.22;5034629;28;20067;-73
2023/10/22 03:13:31;;;;;;;4.07;2.60;;;;;;;2.83;100.00;99253.75;5018044;28;20033;-74
2023/10/22 03:16:00;;;;;;;6.00;2.83;;;;;;;2.93;100.00;99262.41;5034895;28;20026;-74
2023/10/22 03:18:26;;;;;;;7.30;3.10;;;;;;;3.01;100.00;99266.91;5002454;28;20037;-73
2023/10/22 03:20:52;;;;;;;8.30;3.33;;;;;;;3.09;100.00;99265.09;5002006;28;20034;-73
2023/10/22 03:23:18;;;;;;;5.93;3.10;;;;;;;3.13;100.00;99264.78;5018297;28;20041;-74
2023/10/22 03:25:45;;;;;;;4.15;2.67;;;;;;;3.17;100.00;99260.78;5018291;28;20033;-74
2023/10/22 03:28:11;;;;;;;5.20;2.35;;;;;;;3.23;100.00;99268.09;5001747;28;20460;-73
2023/10/22 03:30:39;;;;;;;6.78;2.75;;;;;;;3.32;100.00;99272.41;5001628;28;20091;-73
2023/10/22 03:33:05;;;;;;;5.55;3.22;;;;;;;3.43;100.00;99274.72;5034452;28;20049;-73
2023/10/22 03:35:31;;;;;;;6.13;2.50;;;;;;;3.51;100.00;99288.00;5018121;28;20029;-73
2023/10/22 03:37:58;;;;;;;7.13;2.78;;;;;;;3.65;100.00;99278.56;5017671;28;20025;-73
2023/10/22 03:40:24;;;;;;;6.07;3.03;;;;;;;3.69;100.00;99276.41;5034352;28;20029;-74
2023/10/22 03:42:50;;;;;;;8.05;3.65;;;;;;;3.75;100.00;99281.03;5017921;28;20105;-73
2023/10/22 03:45:15;;;;;;;11.35;3.15;;;;;;;3.85;100.00;99289.66;5001374;28;20061;-73
2023/10/22 03:47:41;;;;;;;8.65;3.58;;;;;;;3.94;100.00;99286.00;5017865;28;20029;-73
2023/10/22 03:50:07;;;;;;;5.32;2.97;;;;;;;4.05;100.00;99295.47;5018041;28;20068;-73
2023/10/22 03:52:33;;;;;;;9.57;3.22;;;;;;;4.13;100.00;99286.63;5034035;28;20029;-74
2023/10/22 03:54:59;;;;;;;8.65;3.70;;;;;;;4.27;100.00;99298.38;5017518;28;20038;-73
2023/10/22 03:57:25;;;;;;;8.60;3.90;;;;;;;4.35;100.00;99296.53;5017632;28;20357;-73
2023/10/22 03:59:51;;;;;;;11.55;3.80;;;;;;;4.38;100.00;99295.34;5034021;28;20116;-73
2023/10/22 04:02:16;;;;;;;13.50;4.10;;;;;;;4.35;100.00;99285.88;5033879;28;20080;-73
2023/10/22 04:04:42;;;;;;;14.15;4.63;;;;;;;4.42;100.00;99296.69;5034140;28;20424;-73
2023/10/22 04:07:08;;;;;;;10.80;4.05;;;;;;;4.42;100.00;99294.03;5017260;28;20094;-73
2023/10/22 04:09:33;;;;;;;10.13;4.05;;;;;;;4.36;100.00;99292.03;5017112;28;20068;-74
2023/10/22 04:11:59;;;;;;;9.07;3.45;;;;;;;4.30;100.00;99306.84;5001119;28;20044;-73
2023/10/22 04:14:24;;;;;;;13.80;4.00;;;;;;;4.26;100.00;99299.38;5001636;28;20041;-73
2023/10/22 04:16:50;;;;;;;8.13;3.50;;;;;;;4.23;100.00;99299.72;5001037;28;20482;-73
2023/10/22 04:19:16;;;;;;;11.48;3.80;;;;;;;4.23;100.00;99302.38;5016901;28;20496;-74
2023/10/22 04:21:41;;;;;;;13.15;4.60;;;;;;;4.29;100.00;99307.84;5018080;28;20354;-73
2023/10/22 04:24:08;;;;;;;21.02;5.13;;;;;;;4.31;100.00;99305.88;5033543;28;20460;-73
2023/10/22 04:26:33;;;;;;;18.25;5.53;;;;;;;4.40;100.00;99309.31;5050416;28;20045;-73
2023/10/22 04:28:59;;;;;;;18.55;5.25;;;;;;;4.37;100.00;99317.66;5017009;28;20029;-74
2023/10/22 04:31:25;;;;;;;23.80;5.70;;;;;;;4.38;100.00;99312.13;5001534;28;20434;-74
2023/10/22 04:33:51;;;;;;;20.58;6.25;;;;;;;4.51;100.00;99321.44;5033554;28;20022;-73
2023/10/22 04:36:20;;;;;;;23.33;5.90;;;;;;;4.64;100.00;99332.34;5016624;28;20457;-73
2023/10/22 04:38:46;;;;;;;23.00;5.47;;;;;;;4.69;100.00;99329.19;5033226;28;20026;-73
2023/10/22 04:41:12;;;;;;;14.60;4.57;;;;;;;4.70;100.00;99336.97;5032984;28;20475;-74
2023/10/22 04:43:38;;;;;;;21.88;5.75;;;;;;;4.68;100.00;99338.16;5000535;28;20034;-73
2023/10/22 04:46:03;;;;;;;16.10;4.85;;;;;;;4.68;100.00;99332.81;5032907;28;20022;-74
2023/10/22 04:48:30;;;;;;;17.77;5.28;;;;;;;4.66;100.00;99332.16;5032683;28;20033;-73
2023/10/22 04:50:57;;;;;;;20.17;5.78;;;;;;;4.64;100.00;99321.69;5000562;28;20472;-74
2023/10/22 04:53:23;;;;;;;20.35;5.80;;;;;;;4.70;100.00;99336.16;5016992;28;20029;-73
2023/10/22 04:55:55;;;;;;;18.73;6.57;;;;;;;4.75;100.00;99339.13;5016646;28;20060;-73
2023/10/22 04:58:21;;;;;;;28.02;6.90;;;;;;;4.72;100.00;99334.97;5032934;28;20036;-73
2023/10/22 05:00:49;;;;;;;30.55;6.53;;;;;;;4.72;100.00;99347.47;5016667;28;20034;-73
2023/10/22 05:03:15;;;;;;;21.13;5.93;;;;;;;4.60;100.00;99347.00;5000526;28;20029;-73
2023/10/22 05:05:41;;;;;;;25.48;6.72;;;;;;;4.55;100.00;99346.69;5000241;28;20029;-73
2023/10/22 05:08:09;;;;;;;26.38;6.43;;;;;;;4.56;100.00;99359.00;5016421;28;20471;-73
2023/10/22 05:10:38;;;;;;;20.85;5.28;;;;;;;4.50;100.00;99357.00;5000421;28;20084;-74
2023/10/22 05:13:05;;;;;;;22.20;6.70;;;;;;;4.43;100.00;99356.06;5032442;28;20056;-74
2023/10/22 05:15:30;;;;;;;24.05;5.88;;;;;;;4.39;100.00;99358.22;5000129;28;20029;-73
2023/10/22 05:17:57;;;;;;;27.85;5.47;;;;;;;4.33;100.00;99351.72;5032636;28;20029;-75
2023/10/22 05:20:29;;;;;;;29.42;6.32;;;;;;;4.35;100.00;99356.91;5032600;28;20025;-73
2023/10/22 05:22:55;;;;;;;26.83;5.88;;;;;;;4.38;100.00;99351.22;5032694;28;20037;-73
2023/10/22 05:25:20;;;;;;;21.60;5.72;;;;;;;4.40;100.00;99363.38;5032900;28;20048;-74
2023/10/22 05:27:46;;;;;;;31.48;7.30;;;;;;;4.41;100.00;99358.88;5016165;28;20042;-73
2023/10/22 05:30:13;;;;;;;31.77;7.57;;;;;;;4.42;100.00;99357.88;5032163;28;20043;-73
2023/10/22 05:32:39;;;;;;;36.13;8.25;;;;;;;4.40;100.00;99358.06;5000429;28;20114;-73
2023/10/22 05:35:04;;;;;;;31.10;7.47;;;;;;;4.46;100.00;99366.34;5016153;28;20423;-73
2023/10/22 05:37:30;;;;;;;26.02;7.20;;;;;;;4.44;100.00;99371.00;5016078;28;20048;-73
2023/10/22 05:39:56;;;;;;;24.75;6.88;;;;;;;4.34;100.00;99372.03;5032629;28;20033;-73
2023/10/22 05:42:22;;;;;;;29.92;6.05;;;;;;;4.24;100.00;99375.88;4999507;28;20033;-73
2023/10/22 05:44:47;;;;;;;29.48;6.20;;;;;;;4.14;100.00;99378.72;5032118;28;20387;-73
2023/10/22 05:47:13;;;;;;;25.98;6.10;;;;;;;4.03;100.00;99387.06;5032029;28;20075;-74
2023/10/22 05:49:38;;;;;;;25.00;5.78;;;;;;;3.96;100.00;99377.06;4999506;28;20128;-73
2023/10/22 05:52:04;;;;;;;16.05;5.78;;;;;;;4.00;100.00;99380.22;5018954;28;20476;-73
2023/10/22 05:54:29;;;;;;;26.95;7.13;;;;;;;4.06;100.00;99384.06;5019836;28;20099;-73
2023/10/22 05:56:55;;;;;;;28.50;7.43;;;;;;;4.18;100.00;99390.66;5019979;28;20542;-73
2023/10/22 05:59:21;;;;;;;24.45;6.68;;;;;;;4.30;100.00;99377.88;5019924;28;20120;-73
2023/10/22 06:01:47;;;;;;;27.25;5.70;;;;;;;4.32;100.00;99375.88;5035900;28;20171;-73
2023/10/22 06:04:13;;;;;;;23.45;5.57;;;;;;;4.29;100.00;99386.84;5036090;28;20535;-73
2023/10/22 06:06:38;;;;;;;23.35;6.55;;;;;;;4.22;100.00;99381.38;5035869;28;20033;-73
2023/10/22 06:09:04;;;;;;;24.17;6.03;;;;;;;4.14;100.00;99379.53;5036004;28;20033;-73
2023/10/22 06:11:29;;;;;;;25.63;5.90;;;;;;;4.07;100.00;99388.38;5019702;28;20088;-73
2023/10/22 06:13:56;;;;;;;22.48;6.22;;;;;;;4.02;100.00;99388.84;5036293;28;20029;-74
2023/10/22 06:16:23;;;;;;;17.85;6.25;;;;;;;4.22;100.00;99384.03;5035664;28;20022;-73
2023/10/22 06:18:49;;;;;;;27.05;7.75;;;;;;;4.36;100.00;99391.31;4987126;28;20110;-73
2023/10/22 06:21:15;;;;;;;19.10;6.72;;;;;;;4.39;100.00;99391.00;5035493;28;20033;-73
2023/10/22 06:23:41;;;;;;;25.42;7.53;;;;;;;4.48;100.00;99390.97;5035935;28;20041;-73
2023/10/22 06:26:11;;;;;;;27.45;8.02;;;;;;;4.53;100.00;99401.94;5019325;28;20038;-73
2023/10/22 06:28:38;;;;;;;21.63;6.70;;;;;;;4.38;100.00;99409.78;5035295;28;20029;-73
2023/10/22 06:31:05;;;;;;;21.90;6.90;;;;;;;4.25;100.00;99414.78;5019397;28;20491;-73
2023/10/22 06:33:32;;;;;;;22.60;7.00;;;;;;;4.09;100.00;99410.31;4986907;28;20040;-73
2023/10/22 06:36:00;;;;;;;24.33;7.30;;;;;;;3.95;100.00;99403.84;5035580;28;20021;-74
2023/10/22 06:38:25;;;;;;;20.85;6.38;;;;;;;3.94;100.00;99410.13;5003185;28;20049;-74
2023/10/22 06:40:51;;;;;;;21.08;6.63;;;;;;;3.83;100.00;99410.47;5035609;28;20376;-73
2023/10/22 06:43:17;;;;;;;23.13;6.40;;;;;;;3.79;100.00;99419.78;5018960;28;20384;-74
2023/10/22 06:45:43;;;;;;;23.55;7.25;;;;;;;3.79;100.00;99423.28;5019011;28;20037;-73
2023/10/22 06:48:08;;;;;;;27.10;7.55;;;;;;;3.67;100.00;99420.09;5018518;28;20094;-73
2023/10/22 06:50:34;;;;;;;27.45;6.90;;;;;;;3.58;100.00;99428.22;5002649;28;20041;-73
2023/10/22 06:53:00;;;;;;;32.47;6.95;;;;;;;3.47;100.00;99432.03;5018933;28;20074;-73
2023/10/22 06:55:26;;;;;;;22.92;7.13;;;;;;;3.35;100.00;99434.16;5019330;28;20034;-73
2023/10/22 06:57:52;;;;;;;20.08;5.93;;;;;;;3.29;100.00;99437.47;5034776;28;20026;-73
2023/10/22 07:00:18;;;;;;;16.95;6.10;;;;;;;3.34;100.00;99443.13;5018465;28;20041;-73
2023/10/22 07:02:45;;;;;;;26.80;6.40;;;;;;;3.29;100.00;99448.09;5018030;28;20120;-73
2023/10/22 07:05:11;;;;;;;17.10;5.38;;;;;;;3.15;100.00;99452.19;5035006;28;20140;-73
2023/10/22 07:07:41;;;;;;;45.72;8.60;;;;;;;2.97;100.00;99460.25;5018236;28;20490;-73
2023/10/22 07:10:09;;;;;;;19.48;5.18;;;;;;;2.85;100.00;99469.47;5018862;28;20021;-74
2023/10/22 07:12:34;;;;;;;24.55;6.93;;;;;;;2.72;100.00;99471.72;5018396;28;20061;-74
2023/10/22 07:15:00;;;;;;;17.65;5.78;;;;;;;2.62;100.00;99472.66;5034878;28;20057;-73
2023/10/22 07:17:26;;;;;;;14.18;5.38;;;;;;;2.51;100.00;99472.91;5035307;28;20026;-73
2023/10/22 07:19:51;;;;;;;15.48;5.32;;;;;;;2.42;100.00;99476.50;5034346;28;20029;-73
2023/10/22 07:22:17;;;;;;;78.90;8.85;;;;;;;2.36;100.00;99475.31;5018355;28;20041;-73
2023/10/22 07:24:45;;;;;;;20.02;5.43;;;;;;;2.39;100.00;99474.16;5034172;28;20086;-73
2023/10/22 07:27:11;;;;;;;20.15;5.40;;;;;;;2.35;100.00;99480.75;5018510;28;20025;-74
2023/10/22 07:29:39;;;;;;;35.85;6.70;;;;;;;2.32;100.00;99486.38;5034337;28;20037;-73
2023/10/22 07:32:05;;;;;;;85.18;8.18;;;;;;;2.32;100.00;99489.00;5001849;28;20468;-73
2023/10/22 07:34:31;;;;;;;27.48;5.82;;;;;;;2.35;100.00;99483.41;5034059;28;20035;-73
2023/10/22 07:36:56;;;;;;;21.95;5.45;;;;;;;2.36;100.00;99488.56;5017192;28;20056;-73
2023/10/22 07:39:22;;;;;;;18.73;5.40;;;;;;;2.33;100.00;99493.31;5032617;28;20384;-73
2023/10/22 07:41:47;;;;;;;57.15;9.95;;;;;;;2.30;100.00;99499.78;5033888;28;20036;-73
2023/10/22 07:44:13;;;;;;;85.15;11.93;;;;;;;2.27;100.00;99507.22;5032715;28;20163;-74
2023/10/22 07:46:39;;;;;;;28.45;6.45;;;;;;;2.23;100.00;99503.22;5017839;28;20233;-74
2023/10/22 07:49:04;;;;;;;19.75;4.53;;;;;;;2.16;100.00;99514.41;5034137;28;20087;-73
2023/10/22 07:51:30;;;;;;;13.88;4.35;;;;;;;2.26;100.00;99524.13;5017779;28;20044;-73
2023/10/22 07:53:56;;;;;;;18.75;5.03;;;;;;;2.42;100.00;99525.06;5033727;28;20029;-73
2023/10/22 07:56:21;;;;;;;14.23;5.43;;;;;;;2.54;100.00;99535.44;5001362;28;20372;-73
2023/10/22 07:58:47;;;;;;;19.45;4.18;;;;;;;2.67;100.00;99538.53;5017705;28;20040;-73
2023/10/22 08:01:13;;;;;;;19.35;6.18;;;;;;;2.83;100.00;99537.81;5033581;28;20491;-74
2023/10/22 08:03:38;;;;;;;18.95;5.90;;;;;;;2.95;100.00;99539.22;5001241;28;20037;-73
2023/10/22 08:06:05;;;;;;;32.88;6.70;;;;;;;2.97;100.00;99539.06;5017627;28;20125;-73
2023/10/22 08:08:30;;;;;;;54.92;6.55;;;;;;;3.02;100.00;99529.63;5016963;28;20033;-74
2023/10/22 08:11:01;;;;;;;22.75;5.38;;;;;;;3.11;100.00;99529.69;5017428;28;20037;-74
2023/10/22 08:13:27;;;;;;;15.25;4.43;;;;;;;3.31;100.00;99523.16;5017152;28;20549;-73
2023/10/22 08:15:53;;;;;;;14.02;4.53;;;;;;;3.46;100.00;99531.34;5016031;28;20029;-73
2023/10/22 08:18:19;;;;;;;11.57;4.25;;;;;;;3.61;100.00;99534.22;5017676;28;20365;-73
2023/10/22 08:20:45;;;;;;;12.05;4.65;;;;;;;3.81;100.00;99529.44;5000654;28;20438;-73
2023/10/22 08:23:11;;;;;;;12.30;4.30;;;;;;;3.91;100.00;99541.59;5016759;28;20029;-73
2023/10/22 08:25:36;;;;;;;14.60;4.75;;;;;;;4.26;100.00;99539.69;5017403;28;20068;-73
2023/10/22 08:28:02;;;;;;;15.27;4.07;;;;;;;4.59;100.00;99535.19;5017111;28;20383;-73
2023/10/22 08:30:28;;;;;;;14.10;4.78;;;;;;;4.72;100.00;99542.69;5016732;28;20083;-73
2023/10/22 08:32:53;;;;;;;19.27;5.35;;;;;;;5.09;100.00;99546.63;5017059;28;20038;-73
2023/10/22 08:35:19;;;;;;;18.88;5.35;;;;;;;6.80;100.00;99550.19;5033295;28;20539;-73
2023/10/22 08:37:44;;;;;;;9.73;4.03;;;;;;;8.06;100.00;99543.00;5000691;28;20029;-74
2023/10/22 08:40:11;;;;;;;14.18;5.28;;;;;;;9.01;100.00;99549.88;5033231;28;20035;-74
2023/10/22 08:42:37;;;;;;;10.80;4.50;;;;;;;9.72;100.00;99550.72;5033651;28;20438;-74
2023/10/22 08:45:04;;;;;;;9.50;3.80;;;;;;;10.24;100.00;99555.44;5000555;28;20041;-74
2023/10/22 08:47:30;;;;;;;7.75;3.88;;;;;;;10.67;100.00;99549.75;5016713;28;20052;-75
2023/10/22 08:49:56;;;;;;;9.48;3.60;;;;;;;11.07;100.00;99554.28;5032694;28;20029;-74
2023/10/22 08:52:23;;;;;;;12.13;3.80;;;;;;;11.34;100.00;99555.88;5032723;28;20468;-73
2023/10/22 08:54:48;;;;;;;8.23;3.15;;;;;;;11.43;100.00;99564.56;5016439;28;20056;-73
2023/10/22 08:57:15;;;;;;;6.20;3.15;;;;;;;11.53;100.00;99554.19;5014747;28;20468;-73
2023/10/22 08:59:41;;;;;;;9.20;3.20;;;;;;;11.94;100.00;99557.63;5014356;28;20034;-73
2023/10/22 09:02:11;;;;;;;7.07;3.10;;;;;;;12.28;100.00;99553.72;5016003;28;20060;-72
2023/10/22 09:04:40;;;;;;;5.18;2.92;;;;;;;12.32;100.00;99549.53;5032763;28;20036;-73
2023/10/22 09:07:06;;;;;;;7.47;3.95;;;;;;;12.56;100.00;99557.88;5016513;28;20037;-73
2023/10/22 09:09:36;;;;;;;8.65;4.18;;;;;;;12.68;100.00;99573.13;5032681;28;20127;-72
2023/10/22 09:12:03;;;;;;;10.02;6.03;;;;;;;12.66;100.00;99580.63;5065507;28;20048;-73
2023/10/22 09:14:29;;;;;;;13.38;8.07;;;;;;;12.59;100.00;99582.53;5032744;28;20042;-73
2023/10/22 09:16:55;;;;;;;12.20;6.68;;;;;;;12.51;100.00;99585.47;5032813;28;20064;-72
2023/10/22 09:19:36;;;;;;;13.13;5.60;;;;;;;12.75;100.00;99584.72;5065552;28;20040;-72
2023/10/22 09:22:03;;;;;;;6.82;4.03;;;;;;;12.82;100.00;99584.66;5032750;28;20061;-73
2023/10/22 09:24:29;;;;;;;6.35;3.38;;;;;;;12.87;100.00;99582.13;5032685;28;20037;-72
2023/10/22 09:26:54;;;;;;;5.47;3.00;;;;;;;13.10;100.00;99580.72;5032249;28;20144;-73
2023/10/22 09:29:20;;;;;;;5.03;2.85;;;;;;;13.32;100.00;99589.25;5048695;28;20025;-73
2023/10/22 09:31:54;;;;;;;4.88;2.97;;;;;;;13.32;100.00;99587.38;5065953;28;20084;-73
2023/10/22 09:34:26;;;;;;;4.95;2.85;;;;;;;13.32;100.00;99586.53;5032444;28;20040;-73
2023/10/22 09:36:53;;;;;;;5.15;2.63;;;;;;;13.38;100.00;99593.75;4999516;28;20029;-72
2023/10/22 09:39:32;;;;;;;5.95;2.80;;;;;;;13.59;100.00;99606.81;5065520;28;20364;-72
2023/10/22 09:41:59;;;;;;;5.22;2.10;;;;;;;13.83;100.00;99604.28;5016086;28;20041;-73
2023/10/22 09:44:26;;;;;;;4.18;2.65;;;;;;;14.05;100.00;99610.03;5065522;28;20068;-72
2023/10/22 09:46:53;;;;;;;7.75;5.78;;;;;;;14.08;100.00;99610.44;5049074;28;20126;-73
2023/10/22 09:49:20;;;;;;;5.85;4.80;;;;;;;14.28;100.00;99614.75;5032467;28;20475;-73
2023/10/22 09:51:47;;;;;;;3.00;2.55;;;;;;;14.45;100.00;99607.66;5032440;28;20490;-73
2023/10/22 09:54:15;;;;;;;6.55;2.22;;;;;;;14.53;100.00;99611.97;5033421;28;20037;-73
2023/10/22 09:56:51;;;;;;;4.18;2.42;;;;;;;14.65;100.00;99620.94;5032411;28;20037;-73
2023/10/22 09:59:20;;;;;;;3.97;2.90;;;;;;;14.46;100.00;99616.59;5015906;28;20050;-72
2023/10/22 10:01:46;;;;;;;3.75;2.13;;;;;;;14.58;100.00;99616.66;5033378;28;20029;-73
2023/10/22 10:04:11;;;;;;;3.00;2.25;;;;;;;14.41;100.00;99630.00;4999661;28;20124;-73
2023/10/22 10:06:38;;;;;;;3.50;2.30;;;;;;;14.16;100.00;99628.22;5065374;28;20117;-73
2023/10/22 10:09:04;;;;;;;3.97;2.65;;;;;;;14.18;100.00;99615.28;5048651;28;20178;-72
2023/10/22 10:11:30;;;;;;;3.63;2.40;;;;;;;14.13;100.00;99614.31;5048741;28;20599;-73
2023/10/22 10:13:58;;;;;;;3.90;2.78;;;;;;;14.03;100.00;99621.09;5028515;28;20460;-72
2023/10/22 10:16:24;;;;;;;5.35;3.03;;;;;;;13.82;100.00;99626.97;5028197;28;20041;-72
2023/10/22 10:19:03;;;;;;;3.92;1.90;;;;;;;14.18;100.00;99628.81;4995297;28;20364;-72
2023/10/22 10:21:34;;;;;;;2.97;2.20;;;;;;;14.66;100.00;99622.59;5020239;28;20025;-73
2023/10/22 10:24:26;;;;;;;3.70;1.70;;;;;;;15.03;100.00;99633.28;5024093;28;20127;-73
2023/10/22 10:27:11;;;;;;;3.33;2.00;;;;;;;15.35;100.00;99631.09;5042284;28;20053;-72
2023/10/22 10:29:37;;;;;;;3.67;2.45;;;;;;;15.30;100.00;99633.66;5027526;28;20099;-72
2023/10/22 10:32:18;;;;;;;5.82;2.15;;;;;;;15.15;100.00;99634.13;5014339;28;20053;-73
2023/10/22 10:34:48;;;;;;;4.32;2.25;;;;;;;15.20;100.00;99636.13;5013370;28;20456;-72
2023/10/22 10:37:15;;;;;;;2.40;1.48;;;;;;;15.29;100.00;99633.88;4998547;28;20037;-73
2023/10/22 10:39:40;;;;;;;3.33;1.70;;;;;;;15.12;100.00;99637.28;4992254;28;20034;-72
2023/10/22 10:42:07;;;;;;;4.18;1.48;;;;;;;14.80;100.00;99634.03;5030340;28;20037;-72
2023/10/22 10:44:35;;;;;;;5.65;2.50;;;;;;;14.56;100.00;99645.84;5017768;28;20037;-72
2023/10/22 10:47:20;;;;;;;3.92;1.38;;;;;;;14.56;100.00;99643.16;5033513;28;20525;-73
2023/10/22 10:50:14;;;;;;;9.60;5.38;;;;;;;14.71;100.00;99638.97;5033195;28;20037;-73
2023/10/22 10:52:46;;;;;;;4.85;2.65;;;;;;;15.04;100.00;99637.63;5035865;28;20061;-74
2023/10/22 10:55:15;;;;;;;4.07;2.63;;;;;;;14.86;100.00;99630.41;5018124;28;20114;-72
2023/10/22 10:57:44;;;;;;;2.85;1.85;;;;;;;14.63;100.00;99643.84;5034986;28;20037;-72
2023/10/22 11:00:16;;;;;;;4.28;1.55;;;;;;;14.16;100.00;99643.63;5035227;28;20095;-72
2023/10/22 11:02:43;;;;;;;6.07;2.10;;;;;;;13.76;100.00;99641.34;5050498;28;20545;-75
2023/10/22 11:05:10;;;;;;;6.88;2.88;;;;;;;13.53;100.00;99650.13;5049934;28;20030;-74
2023/10/22 11:07:39;;;;;;;6.13;2.50;;;;;;;13.44;100.00;99646.03;5017072;28;20041;-73
2023/10/22 11:10:16;;;;;;;5.05;1.40;;;;;;;13.82;100.00;99651.28;5041410;28;21419;-72
2023/10/22 11:12:43;;;;;;;5.85;1.42;;;;;;;12.91;100.00;99644.56;5030984;28;20491;-73
2023/10/22 11:15:10;;;;;;;5.43;1.65;;;;;;;12.66;100.00;99652.59;5002152;28;20072;-72
2023/10/22 11:17:45;;;;;;;4.00;1.70;;;;;;;12.44;100.00;99647.53;5031949;28;20045;-73
2023/10/22 11:20:13;;;;;;;2.55;1.98;;;;;;;12.30;100.00;99652.19;5032272;28;20037;-72
2023/10/22 11:22:39;;;;;;;4.45;2.05;;;;;;;12.02;100.00;99652.47;4999992;28;20029;-73
2023/10/22 11:25:07;;;;;;;3.53;1.75;;;;;;;11.85;100.00;99654.78;5032526;28;20483;-73